Time;durP1;ratioP1;P1;durP2;ratioP2;P2;SDS_P1;SDS_P2;PMS_P1;PMS_P2;Temp;Humidity;BMP_temperature;BMP_pressure;BME280_temperature;BME280_humidity;BME280_pressure;Samples;Min_cycle;Max_cycle;Signal;HPM_P1;HPM_P2
2022/10/07 00:01:28;;;;;;;3.70;2.78;;;15.00;1.00;;;;;;5094278;28;20024;-88
2022/10/07 00:03:54;;;;;;;6.82;3.05;;;15.00;1.00;;;;;;5108459;27;20022;-88
2022/10/07 00:06:21;;;;;;;4.65;2.60;;;15.00;1.00;;;;;;5134265;27;20027;-88
2022/10/07 00:08:49;;;;;;;5.93;2.78;;;15.10;1.00;;;;;;5134678;27;20027;-88
2022/10/07 00:11:20;;;;;;;5.65;2.30;;;15.20;1.00;;;;;;5134716;27;20020;-88
2022/10/07 00:13:48;;;;;;;4.90;2.45;;;15.20;1.00;;;;;;5134582;27;20026;-88
2022/10/07 00:16:18;;;;;;;3.85;2.60;;;15.10;1.00;;;;;;5134503;27;20092;-88
2022/10/07 00:18:44;;;;;;;5.30;2.60;;;15.00;1.00;;;;;;5134547;27;20068;-87
2022/10/07 00:21:12;;;;;;;5.93;2.70;;;14.90;1.00;;;;;;5115999;28;20023;-89
2022/10/07 00:23:41;;;;;;;6.00;2.92;;;14.70;1.00;;;;;;5116277;27;20038;-88
2022/10/07 00:26:09;;;;;;;5.30;2.55;;;14.80;1.00;;;;;;5134677;27;20026;-88
2022/10/07 00:28:35;;;;;;;9.32;2.58;;;14.90;1.00;;;;;;5116010;28;20046;-89
2022/10/07 00:31:04;;;;;;;4.75;2.70;;;15.00;1.00;;;;;;5126395;27;20023;-88
2022/10/07 00:33:31;;;;;;;6.07;2.60;;;14.80;1.00;;;;;;5095570;28;20403;-88
2022/10/07 00:35:57;;;;;;;6.32;2.92;;;14.80;1.00;;;;;;5095915;28;20022;-88
2022/10/07 00:38:22;;;;;;;7.20;2.65;;;14.80;1.00;;;;;;5113892;28;20028;-88
2022/10/07 00:40:48;;;;;;;5.75;2.80;;;14.70;1.00;;;;;;5095477;28;20144;-88
2022/10/07 00:43:25;;;;;;;4.57;2.58;;;14.70;1.00;;;;;;5114327;28;20042;-88
2022/10/07 00:45:54;;;;;;;6.50;3.00;;;14.60;1.00;;;;;;5113831;28;20409;-88
2022/10/07 00:48:25;;;;;;;3.60;2.67;;;14.60;1.00;;;;;;5113406;28;20038;-88
2022/10/07 00:50:54;;;;;;;6.63;3.10;;;14.50;1.00;;;;;;5095243;28;20433;-87
2022/10/07 00:53:21;;;;;;;3.75;2.80;;;14.60;1.00;;;;;;5114080;28;20106;-88
2022/10/07 00:55:47;;;;;;;4.55;2.90;;;14.60;1.00;;;;;;5113958;28;20047;-88
2022/10/07 00:58:13;;;;;;;6.72;2.85;;;14.50;1.00;;;;;;5113679;28;20035;-88
2022/10/07 01:00:39;;;;;;;5.13;3.00;;;14.60;1.00;;;;;;5113476;28;20110;-87
2022/10/07 01:03:05;;;;;;;6.20;2.85;;;14.50;1.00;;;;;;5123445;28;20035;-88
2022/10/07 01:05:31;;;;;;;4.30;2.80;;;14.60;1.00;;;;;;5115434;28;20053;-88
2022/10/07 01:07:58;;;;;;;5.53;2.92;;;14.50;1.00;;;;;;5133946;28;20038;-88
2022/10/07 01:10:32;;;;;;;5.40;3.08;;;14.50;1.00;;;;;;5134043;28;20475;-88
2022/10/07 01:13:18;;;;;;;6.25;2.97;;;14.50;1.00;;;;;;5133780;28;20031;-88
2022/10/07 01:16:14;;;;;;;4.43;2.80;;;14.50;1.00;;;;;;5134362;28;20072;-88
2022/10/07 01:19:07;;;;;;;3.90;2.70;;;14.50;1.00;;;;;;5133628;28;20187;-88
2022/10/07 01:21:52;;;;;;;4.53;2.92;;;14.40;1.00;;;;;;5133874;28;20076;-88
2022/10/07 01:24:42;;;;;;;3.47;2.88;;;14.50;1.00;;;;;;5115522;28;20024;-88
2022/10/07 01:27:16;;;;;;;9.95;3.10;;;14.50;1.00;;;;;;5115723;28;20483;-88
2022/10/07 01:29:54;;;;;;;6.35;2.83;;;14.50;1.00;;;;;;5133968;28;20027;-88
2022/10/07 01:32:46;;;;;;;6.68;2.63;;;14.50;1.00;;;;;;5096241;28;20028;-88
2022/10/07 01:35:17;;;;;;;6.32;3.00;;;14.50;1.00;;;;;;5113028;28;20047;-88
2022/10/07 01:37:48;;;;;;;3.40;2.72;;;14.40;1.00;;;;;;5113149;28;20024;-88
2022/10/07 01:40:18;;;;;;;5.93;3.13;;;14.50;1.00;;;;;;5113416;28;20075;-88
2022/10/07 01:42:45;;;;;;;6.43;2.85;;;14.40;1.00;;;;;;5097657;28;20100;-88
2022/10/07 01:45:15;;;;;;;6.47;2.97;;;14.30;1.00;;;;;;5098447;28;20372;-88
2022/10/07 01:47:41;;;;;;;6.25;2.70;;;14.30;1.00;;;;;;5116506;28;20035;-89
2022/10/07 01:50:13;;;;;;;4.20;2.80;;;14.20;1.00;;;;;;5097962;28;20023;-88
2022/10/07 01:52:39;;;;;;;4.22;2.72;;;14.30;1.00;;;;;;5116733;28;20036;-88
2022/10/07 01:55:11;;;;;;;9.50;2.95;;;14.30;1.00;;;;;;5116428;28;20026;-88
2022/10/07 01:57:55;;;;;;;4.47;2.70;;;14.20;1.00;;;;;;5098503;28;20024;-88
2022/10/07 02:00:23;;;;;;;4.68;3.00;;;14.30;1.00;;;;;;5098576;28;20028;-88
2022/10/07 02:03:10;;;;;;;7.38;2.80;;;14.20;1.00;;;;;;5105187;27;20027;-89
2022/10/07 02:05:46;;;;;;;4.10;2.60;;;14.20;1.00;;;;;;5136748;27;20026;-88
2022/10/07 02:08:32;;;;;;;6.80;3.05;;;14.40;1.00;;;;;;5136530;27;20084;-89
2022/10/07 02:11:10;;;;;;;3.65;2.65;;;14.50;1.00;;;;;;5137331;27;20046;-88
2022/10/07 02:13:54;;;;;;;4.13;2.88;;;14.60;1.00;;;;;;5136807;27;20604;-88
2022/10/07 02:16:47;;;;;;;6.45;2.90;;;14.60;1.00;;;;;;5136859;27;20035;-88
2022/10/07 02:19:22;;;;;;;6.10;3.47;;;14.70;1.00;;;;;;5136544;27;20022;-88
2022/10/07 02:21:51;;;;;;;6.63;2.88;;;14.70;1.00;;;;;;5136817;27;20035;-87
2022/10/07 02:24:20;;;;;;;5.80;3.15;;;14.60;1.00;;;;;;5136669;27;20375;-88
2022/10/07 02:26:48;;;;;;;4.70;2.90;;;14.70;1.00;;;;;;5136917;27;20023;-88
2022/10/07 02:29:16;;;;;;;6.43;3.20;;;14.70;1.00;;;;;;5118159;27;20079;-88
2022/10/07 02:31:44;;;;;;;5.72;3.00;;;14.70;1.00;;;;;;5122292;27;20012;-88
2022/10/07 02:34:13;;;;;;;7.95;3.10;;;14.80;1.00;;;;;;5115693;28;20051;-88
2022/10/07 02:36:46;;;;;;;8.05;3.10;;;14.70;1.00;;;;;;5116108;28;20043;-87
2022/10/07 02:39:12;;;;;;;7.55;3.28;;;14.70;1.00;;;;;;5115823;28;20031;-88
2022/10/07 02:41:48;;;;;;;5.80;3.22;;;14.80;1.00;;;;;;5115314;28;20114;-88
2022/10/07 02:44:26;;;;;;;4.72;3.10;;;14.70;1.00;;;;;;5097497;28;20063;-88
2022/10/07 02:47:02;;;;;;;5.82;3.35;;;14.80;1.00;;;;;;5115442;28;20023;-88
2022/10/07 02:49:30;;;;;;;5.63;3.17;;;14.80;1.00;;;;;;5115645;28;20049;-88
2022/10/07 02:52:05;;;;;;;5.18;3.42;;;14.80;1.00;;;;;;5097300;28;20443;-88
2022/10/07 02:54:36;;;;;;;5.18;3.30;;;14.80;1.00;;;;;;5115579;28;20024;-88
2022/10/07 02:57:04;;;;;;;7.45;3.35;;;14.90;1.00;;;;;;5097249;28;20051;-88
2022/10/07 02:59:31;;;;;;;8.75;3.60;;;14.80;1.00;;;;;;5115531;28;20047;-88
2022/10/07 03:02:00;;;;;;;5.25;3.25;;;15.00;1.00;;;;;;5096576;28;20038;-88
2022/10/07 03:04:26;;;;;;;5.30;3.10;;;14.80;1.00;;;;;;5097284;28;20034;-88
2022/10/07 03:06:53;;;;;;;8.48;3.60;;;14.70;1.00;;;;;;5097029;28;20027;-88
2022/10/07 03:09:19;;;;;;;5.10;3.45;;;15.20;1.00;;;;;;5096777;28;20744;-88
2022/10/07 03:11:44;;;;;;;3.75;3.38;;;15.00;1.00;;;;;;5096633;28;20062;-88
2022/10/07 03:14:10;;;;;;;5.70;3.40;;;15.00;1.00;;;;;;5114306;28;20059;-88
2022/10/07 03:16:36;;;;;;;4.40;2.97;;;14.90;1.00;;;;;;5114179;28;20026;-88
2022/10/07 03:19:02;;;;;;;5.82;3.40;;;14.90;1.00;;;;;;5114234;28;20494;-88
2022/10/07 03:21:28;;;;;;;5.60;3.25;;;14.90;1.00;;;;;;5114148;28;20277;-88
2022/10/07 03:23:54;;;;;;;7.53;4.10;;;14.80;1.00;;;;;;5114086;28;20057;-88
2022/10/07 03:26:20;;;;;;;6.15;3.20;;;14.80;1.00;;;;;;5114502;28;20059;-88
2022/10/07 03:28:46;;;;;;;3.65;3.22;;;14.80;1.00;;;;;;5129913;27;20452;-88
2022/10/07 03:31:14;;;;;;;4.85;3.30;;;14.70;1.00;;;;;;5095828;28;20016;-88
2022/10/07 03:33:40;;;;;;;5.82;3.78;;;14.70;1.00;;;;;;5114190;28;20051;-88
2022/10/07 03:36:10;;;;;;;5.78;3.50;;;14.70;1.00;;;;;;5095828;28;20032;-88
2022/10/07 03:38:36;;;;;;;4.55;3.55;;;14.80;1.00;;;;;;5114057;28;20020;-88
2022/10/07 03:41:03;;;;;;;5.20;3.60;;;14.80;1.00;;;;;;5113980;28;20023;-88
2022/10/07 03:43:30;;;;;;;5.80;3.90;;;14.90;1.00;;;;;;5114012;28;20073;-88
2022/10/07 03:45:57;;;;;;;4.65;3.65;;;14.90;1.00;;;;;;5095702;28;20057;-88
2022/10/07 03:48:23;;;;;;;5.47;3.90;;;14.90;1.00;;;;;;5113822;28;20028;-88
2022/10/07 03:50:49;;;;;;;5.25;3.97;;;14.90;1.00;;;;;;5095724;28;20360;-88
2022/10/07 03:53:15;;;;;;;7.90;4.38;;;14.90;1.00;;;;;;5113891;28;20038;-88
2022/10/07 03:55:41;;;;;;;7.63;4.35;;;14.90;1.00;;;;;;5095621;28;20019;-88
2022/10/07 03:58:06;;;;;;;5.93;4.20;;;15.00;1.00;;;;;;5113461;28;20047;-88
2022/10/07 04:00:32;;;;;;;8.30;4.55;;;14.70;1.00;;;;;;5113680;28;20028;-88
2022/10/07 04:02:57;;;;;;;8.98;5.18;;;14.80;1.00;;;;;;5113352;28;20032;-88
2022/10/07 04:05:23;;;;;;;5.40;4.07;;;14.80;1.00;;;;;;5113110;28;20027;-88
2022/10/07 04:07:49;;;;;;;10.55;4.90;;;14.70;1.00;;;;;;5113859;28;20030;-88
2022/10/07 04:10:17;;;;;;;7.18;5.00;;;14.60;1.00;;;;;;5095372;28;20020;-88
2022/10/07 04:12:43;;;;;;;6.22;5.05;;;14.60;1.00;;;;;;5094951;28;20016;-88
2022/10/07 04:15:12;;;;;;;6.07;4.63;;;14.60;1.00;;;;;;5095124;28;20084;-88
2022/10/07 04:17:40;;;;;;;7.57;4.90;;;14.60;1.00;;;;;;5095480;28;20027;-88
2022/10/07 04:20:06;;;;;;;8.02;5.32;;;14.60;1.00;;;;;;5113206;28;20060;-88
2022/10/07 04:22:32;;;;;;;7.32;5.32;;;14.60;1.00;;;;;;5095240;28;20063;-88
2022/10/07 04:27:41;;;;;;;7.75;5.70;;;14.70;1.00;;;;;;5113364;28;20451;-88
2022/10/07 04:30:08;;;;;;;6.03;5.05;;;14.90;1.00;;;;;;5095091;28;20051;-89
2022/10/07 04:32:35;;;;;;;9.35;5.20;;;14.80;1.00;;;;;;5113079;28;20031;-88
2022/10/07 04:35:02;;;;;;;8.40;5.47;;;14.90;1.00;;;;;;5113520;28;20570;-87
2022/10/07 04:37:28;;;;;;;9.20;5.75;;;14.90;1.00;;;;;;5113984;28;20024;-88
2022/10/07 04:39:55;;;;;;;9.07;5.80;;;14.90;1.00;;;;;;5095413;28;20053;-88
2022/10/07 04:45:05;;;;;;;9.35;6.50;;;14.90;1.00;;;;;;5113828;28;20031;-88
2022/10/07 04:47:34;;;;;;;10.90;6.88;;;14.90;1.00;;;;;;5113512;28;20031;-88
2022/10/07 04:50:00;;;;;;;8.88;5.93;;;14.90;1.00;;;;;;5113528;28;20076;-88
2022/10/07 04:52:26;;;;;;;10.23;7.43;;;15.20;1.00;;;;;;5095087;28;20024;-88
2022/10/07 04:54:52;;;;;;;10.77;6.88;;;15.20;1.00;;;;;;5113702;28;20364;-88
2022/10/07 04:57:17;;;;;;;12.65;7.45;;;15.10;1.00;;;;;;5113120;28;20027;-86
2022/10/07 04:59:43;;;;;;;10.98;7.63;;;14.90;1.00;;;;;;5113758;28;20019;-87
2022/10/07 05:02:09;;;;;;;10.95;7.63;;;14.90;1.00;;;;;;5096627;28;20035;-87
2022/10/07 05:04:34;;;;;;;10.80;7.10;;;15.20;1.00;;;;;;5115711;28;20399;-88
2022/10/07 05:07:00;;;;;;;11.65;7.82;;;14.90;1.00;;;;;;5115737;28;20039;-88
2022/10/07 05:09:26;;;;;;;13.25;8.07;;;14.90;1.00;;;;;;5133950;28;20080;-88
2022/10/07 05:11:54;;;;;;;11.32;8.23;;;14.90;1.00;;;;;;5133811;28;20011;-88
2022/10/07 05:14:21;;;;;;;13.18;9.05;;;14.90;1.00;;;;;;5133796;28;20039;-87
2022/10/07 05:16:47;;;;;;;15.48;8.95;;;14.90;1.00;;;;;;5135154;27;20034;-88
2022/10/07 05:19:13;;;;;;;11.80;8.73;;;14.70;1.00;;;;;;5137694;27;20479;-88
2022/10/07 05:21:39;;;;;;;13.73;8.38;;;14.80;1.00;;;;;;5137459;27;20106;-87
2022/10/07 05:24:06;;;;;;;11.98;8.68;;;14.70;1.00;;;;;;5137176;27;20110;-91
2022/10/07 05:26:32;;;;;;;16.05;9.02;;;14.80;1.00;;;;;;5119002;27;20031;-88
2022/10/07 05:28:58;;;;;;;14.30;8.98;;;14.60;1.00;;;;;;5118739;27;20387;-88
2022/10/07 05:31:25;;;;;;;14.48;9.20;;;14.60;1.00;;;;;;5107018;28;20024;-87
2022/10/07 05:33:50;;;;;;;13.38;9.27;;;14.70;1.00;;;;;;5116488;28;20526;-87
2022/10/07 05:36:18;;;;;;;14.27;9.55;;;14.60;1.00;;;;;;5098154;28;20114;-87
2022/10/07 05:38:44;;;;;;;15.77;8.95;;;14.50;1.00;;;;;;5098041;28;20027;-88
2022/10/07 05:41:11;;;;;;;12.93;9.25;;;14.50;1.00;;;;;;5116049;28;20031;-88
2022/10/07 05:43:40;;;;;;;14.40;10.45;;;14.50;1.00;;;;;;5116459;28;20032;-87
2022/10/07 05:46:12;;;;;;;16.83;11.13;;;14.40;1.00;;;;;;5115989;28;20027;-87
2022/10/07 05:48:39;;;;;;;15.50;11.63;;;14.50;1.00;;;;;;5116074;28;20019;-87
2022/10/07 05:51:06;;;;;;;17.92;11.40;;;14.60;1.00;;;;;;5097494;28;20369;-88
2022/10/07 05:53:31;;;;;;;17.13;13.02;;;14.60;1.00;;;;;;5116127;28;20508;-88
2022/10/07 05:55:57;;;;;;;17.10;12.77;;;14.50;1.00;;;;;;5098970;28;20024;-88
2022/10/07 05:58:23;;;;;;;18.02;14.05;;;14.40;1.00;;;;;;5116212;28;20507;-88
2022/10/07 06:00:57;;;;;;;15.02;12.68;;;14.40;1.00;;;;;;5116258;28;20028;-87
2022/10/07 06:03:24;;;;;;;17.27;13.45;;;14.30;1.00;;;;;;5097747;28;20174;-88
2022/10/07 06:05:51;;;;;;;17.30;13.70;;;14.30;1.00;;;;;;5116031;28;20051;-88
2022/10/07 06:08:18;;;;;;;22.38;15.43;;;14.40;1.00;;;;;;5098058;28;20084;-88
2022/10/07 06:13:32;;;;;;;23.10;15.40;;;14.50;1.00;;;;;;5116651;28;20039;-89
2022/10/07 06:16:06;;;;;;;19.85;14.82;;;14.60;1.00;;;;;;5097179;28;20487;-88
2022/10/07 06:18:34;;;;;;;18.92;15.32;;;14.70;1.00;;;;;;5115517;28;20035;-88
2022/10/07 06:21:00;;;;;;;20.73;15.05;;;14.70;1.00;;;;;;5115433;28;20032;-88
2022/10/07 06:23:27;;;;;;;20.25;14.52;;;14.70;1.00;;;;;;5097114;28;20035;-88
2022/10/07 06:25:58;;;;;;;20.33;14.50;;;14.70;1.00;;;;;;5097470;28;20023;-88
2022/10/07 06:28:24;;;;;;;27.63;16.63;;;14.80;1.00;;;;;;5113952;28;20028;-89
2022/10/07 06:30:50;;;;;;;18.95;14.57;;;14.90;1.00;;;;;;5114809;28;20051;-87
2022/10/07 06:33:18;;;;;;;18.20;14.02;;;14.90;1.00;;;;;;5117909;28;20028;-87
2022/10/07 06:35:44;;;;;;;18.95;13.50;;;15.00;1.00;;;;;;5114529;28;20036;-88
2022/10/07 06:38:11;;;;;;;17.65;13.98;;;15.20;1.00;;;;;;5114592;28;20031;-80
2022/10/07 06:40:37;;;;;;;16.88;13.40;;;15.40;99.90;;;;;;5114246;28;20052;-82
2022/10/07 06:43:02;;;;;;;17.75;13.52;;;15.40;99.90;;;;;;5114443;28;20035;-81
2022/10/07 06:45:32;;;;;;;15.65;12.35;;;15.50;99.90;;;;;;5113470;28;20184;-82
2022/10/07 06:47:57;;;;;;;19.00;13.63;;;15.50;99.90;;;;;;5111427;28;20034;-81
2022/10/07 06:50:23;;;;;;;16.85;12.75;;;15.20;99.90;;;;;;5111444;28;20023;-81
2022/10/07 06:52:49;;;;;;;16.83;11.82;;;15.30;99.90;;;;;;5113033;28;20384;-81
2022/10/07 06:55:16;;;;;;;16.92;12.50;;;15.50;99.90;;;;;;5112633;28;20028;-81
2022/10/07 06:57:42;;;;;;;17.15;12.07;;;15.50;99.90;;;;;;5113880;28;20060;-81
2022/10/07 07:00:09;;;;;;;15.70;11.40;;;15.70;99.90;;;;;;5114139;28;20019;-81
2022/10/07 07:02:34;;;;;;;11.88;10.40;;;15.70;99.90;;;;;;5095433;28;20553;-81
2022/10/07 07:05:03;;;;;;;13.18;10.88;;;15.80;99.90;;;;;;5114251;28;20110;-82
2022/10/07 07:07:29;;;;;;;12.00;10.23;;;15.80;99.90;;;;;;5113451;28;20073;-82
2022/10/07 07:09:55;;;;;;;12.15;10.00;;;15.90;99.90;;;;;;5113719;28;20020;-81
2022/10/07 07:12:24;;;;;;;16.00;10.45;;;16.00;99.90;;;;;;5113519;28;20537;-81
2022/10/07 07:14:50;;;;;;;11.65;9.10;;;16.10;99.90;;;;;;5113083;28;20027;-81
2022/10/07 07:17:15;;;;;;;10.50;8.98;;;15.90;99.90;;;;;;5113514;28;20032;-81
2022/10/07 07:19:41;;;;;;;9.88;8.43;;;16.00;99.90;;;;;;5113194;28;20502;-81
2022/10/07 07:22:07;;;;;;;9.75;8.48;;;16.10;99.90;;;;;;5113133;28;20088;-81
2022/10/07 07:24:33;;;;;;;10.82;8.73;;;16.10;99.90;;;;;;5113979;28;20069;-80
2022/10/07 07:26:59;;;;;;;10.40;8.40;;;16.20;99.90;;;;;;5113196;28;20421;-83
2022/10/07 07:29:25;;;;;;;9.63;7.95;;;16.20;99.90;;;;;;5114040;28;20039;-83
2022/10/07 07:31:51;;;;;;;9.55;8.00;;;16.10;99.90;;;;;;5112232;28;20030;-84
2022/10/07 07:34:17;;;;;;;10.88;7.40;;;16.10;99.90;;;;;;5113173;28;20052;-84
2022/10/07 07:36:49;;;;;;;8.45;7.57;;;16.20;99.90;;;;;;5112980;28;20020;-83
2022/10/07 07:39:17;;;;;;;8.05;7.25;;;16.30;99.90;;;;;;5112412;28;20039;-82
2022/10/07 07:41:46;;;;;;;8.73;7.85;;;16.30;99.90;;;;;;5128347;27;20034;-81
2022/10/07 07:44:14;;;;;;;11.40;7.38;;;15.90;99.90;;;;;;5113233;28;20039;-81
2022/10/07 07:46:42;;;;;;;8.68;7.35;;;16.10;99.90;;;;;;5095140;28;20488;-82
2022/10/07 07:49:09;;;;;;;8.30;7.28;;;16.30;99.90;;;;;;5113662;28;20039;-82
2022/10/07 07:51:35;;;;;;;10.98;7.60;;;15.80;99.90;;;;;;5112839;28;20047;-82
2022/10/07 07:54:01;;;;;;;10.85;7.30;;;16.10;99.90;;;;;;5113202;28;20055;-84
2022/10/07 07:56:33;;;;;;;11.07;8.15;;;16.50;99.90;;;;;;5095017;28;20376;-82
2022/10/07 07:58:59;;;;;;;10.77;8.15;;;16.30;99.90;;;;;;5113108;28;20027;-83
2022/10/07 08:01:25;;;;;;;10.30;7.50;;;16.30;99.90;;;;;;5112863;28;20076;-82
2022/10/07 08:03:52;;;;;;;11.10;8.68;;;16.60;99.90;;;;;;5112678;28;20035;-82
2022/10/07 08:06:20;;;;;;;10.57;8.45;;;16.20;99.90;;;;;;5094187;28;20109;-82
2022/10/07 08:08:46;;;;;;;12.10;8.40;;;16.10;99.90;;;;;;5112854;28;20035;-82
2022/10/07 08:11:17;;;;;;;13.13;8.40;;;16.40;99.90;;;;;;5113079;28;20024;-82
2022/10/07 08:13:43;;;;;;;12.10;9.05;;;16.40;99.90;;;;;;5094413;28;20028;-82
2022/10/07 08:16:12;;;;;;;11.65;8.68;;;16.70;99.90;;;;;;5112785;28;20019;-82
2022/10/07 08:18:41;;;;;;;11.25;8.85;;;17.70;99.90;;;;;;5112600;28;20148;-82
2022/10/07 08:21:09;;;;;;;16.95;9.25;;;17.70;99.90;;;;;;5112658;28;20402;-82
2022/10/07 08:23:35;;;;;;;13.38;8.60;;;18.40;99.90;;;;;;5112698;28;20032;-82
2022/10/07 08:26:02;;;;;;;12.95;8.65;;;18.80;99.90;;;;;;5112921;28;20024;-82
2022/10/07 08:28:28;;;;;;;10.35;8.30;;;18.80;99.90;;;;;;5094163;28;20437;-82
2022/10/07 08:31:04;;;;;;;12.77;8.57;;;18.80;99.90;;;;;;5112603;28;20047;-82
2022/10/07 08:33:35;;;;;;;10.90;8.20;;;19.10;99.90;;;;;;5112090;28;20035;-82
2022/10/07 08:36:02;;;;;;;12.75;8.57;;;19.40;99.90;;;;;;5112677;28;20028;-82
2022/10/07 08:38:32;;;;;;;9.30;8.32;;;19.80;99.90;;;;;;5128682;27;20030;-82
2022/10/07 08:41:11;;;;;;;9.98;8.13;;;20.70;99.90;;;;;;5094166;28;20400;-82
2022/10/07 08:43:43;;;;;;;8.07;6.60;;;22.20;99.90;;;;;;5112351;28;20063;-83
2022/10/07 08:46:12;;;;;;;10.93;7.70;;;23.70;99.90;;;;;;5112432;28;20034;-83
2022/10/07 08:48:41;;;;;;;7.82;7.03;;;28.00;99.90;;;;;;5112002;28;20076;-83
2022/10/07 08:51:20;;;;;;;9.63;7.88;;;29.60;99.90;;;;;;5114570;28;20102;-82
2022/10/07 08:53:52;;;;;;;8.00;7.20;;;28.60;99.90;;;;;;5116514;28;20024;-82
2022/10/07 08:56:20;;;;;;;9.75;7.25;;;28.40;99.90;;;;;;5116512;28;20024;-83
2022/10/07 08:59:13;;;;;;;7.43;6.72;;;31.20;99.90;;;;;;5116515;28;20031;-83
2022/10/07 09:01:47;;;;;;;7.93;6.30;;;32.70;99.90;;;;;;5116395;28;20030;-82
2022/10/07 09:04:40;;;;;;;7.28;6.13;;;31.40;99.90;;;;;;5115977;28;20106;-83
2022/10/07 09:07:13;;;;;;;8.23;6.50;;;31.40;99.90;;;;;;5116687;28;20031;-83
2022/10/07 09:09:44;;;;;;;8.13;6.97;;;31.50;99.90;;;;;;5116292;28;20034;-83
2022/10/07 09:12:21;;;;;;;7.60;6.80;;;26.30;99.90;;;;;;5116361;28;20034;-83
2022/10/07 09:14:50;;;;;;;7.18;6.40;;;28.40;99.90;;;;;;5116232;28;20127;-83
2022/10/07 09:17:20;;;;;;;7.10;6.40;;;28.40;99.90;;;;;;5115650;28;20019;-83
2022/10/07 09:19:48;;;;;;;10.82;5.88;;;31.40;99.90;;;;;;5116578;28;20027;-83
2022/10/07 09:22:20;;;;;;;7.00;5.80;;;33.00;99.90;;;;;;5116144;28;20058;-83
2022/10/07 09:24:48;;;;;;;9.95;6.95;;;33.70;99.90;;;;;;5116076;28;20028;-83
2022/10/07 09:27:16;;;;;;;7.75;6.10;;;34.70;99.90;;;;;;5115893;28;20107;-83
2022/10/07 09:29:42;;;;;;;8.02;5.65;;;36.30;99.90;;;;;;5114945;28;20028;-83
2022/10/07 09:32:17;;;;;;;8.18;5.60;;;34.90;99.90;;;;;;5115048;28;20111;-82
2022/10/07 09:34:44;;;;;;;6.32;5.72;;;35.20;99.90;;;;;;5115353;28;20039;-83
2022/10/07 09:37:20;;;;;;;5.78;5.28;;;35.60;99.90;;;;;;5115953;28;20042;-82
2022/10/07 09:39:49;;;;;;;7.07;6.38;;;37.40;99.90;;;;;;5115353;28;20053;-82
2022/10/07 09:42:18;;;;;;;7.22;6.38;;;35.60;99.90;;;;;;5115423;28;20054;-82
2022/10/07 09:44:53;;;;;;;7.65;6.15;;;31.60;99.90;;;;;;5115668;28;20016;-82
2022/10/07 09:47:25;;;;;;;11.27;6.25;;;30.00;99.90;;;;;;5132069;27;20027;-85
2022/10/07 09:49:55;;;;;;;8.38;6.95;;;30.70;99.90;;;;;;5120810;27;20120;-83
2022/10/07 09:52:27;;;;;;;8.35;6.57;;;33.00;99.90;;;;;;5114800;28;20589;-84
2022/10/07 09:54:56;;;;;;;8.18;6.93;;;33.00;99.90;;;;;;5115240;28;20031;-84
2022/10/07 09:57:23;;;;;;;7.40;6.47;;;30.70;99.90;;;;;;5115061;28;20103;-84
2022/10/07 09:59:48;;;;;;;9.02;6.35;;;28.60;99.90;;;;;;5115347;28;20051;-83
2022/10/07 10:02:14;;;;;;;7.15;6.45;;;28.50;99.90;;;;;;5114016;28;20472;-84
2022/10/07 10:04:54;;;;;;;9.45;5.88;;;27.10;99.90;;;;;;5115031;28;20027;-84
2022/10/07 10:07:25;;;;;;;9.32;7.18;;;26.70;99.90;;;;;;5114936;28;20044;-83
2022/10/07 10:09:53;;;;;;;7.45;6.75;;;27.20;99.90;;;;;;5113941;28;20413;-85
2022/10/07 10:12:22;;;;;;;8.02;6.30;;;27.40;99.90;;;;;;5115022;28;20034;-84
2022/10/07 10:14:47;;;;;;;9.73;7.18;;;28.50;99.90;;;;;;5114148;28;20035;-82
2022/10/07 10:17:26;;;;;;;8.52;6.90;;;29.30;99.90;;;;;;5114170;28;20027;-82
2022/10/07 10:19:53;;;;;;;7.93;6.75;;;33.70;99.90;;;;;;5114091;28;20133;-85
2022/10/07 10:22:28;;;;;;;7.43;6.63;;;34.20;99.90;;;;;;5114374;28;20024;-85
2022/10/07 10:28:01;;;;;;;9.35;6.43;;;34.90;99.90;;;;;;5114139;28;20502;-84
2022/10/07 10:30:29;;;;;;;9.48;6.63;;;34.10;99.90;;;;;;5094173;28;20027;-85
2022/10/07 10:33:17;;;;;;;7.18;5.80;;;37.40;99.90;;;;;;5113944;28;20149;-83
2022/10/07 10:35:56;;;;;;;7.30;5.45;;;38.90;99.90;;;;;;5113668;28;20058;-83
2022/10/07 10:38:38;;;;;;;7.75;5.78;;;38.80;99.90;;;;;;5114540;28;20024;-83
2022/10/07 10:41:12;;;;;;;7.38;6.05;;;35.40;99.90;;;;;;5114846;28;20024;-83
2022/10/07 10:43:53;;;;;;;7.93;5.97;;;38.80;99.90;;;;;;5113973;28;20059;-84
2022/10/07 10:46:30;;;;;;;7.70;5.47;;;42.00;99.90;;;;;;5114534;28;20024;-83
2022/10/07 10:49:08;;;;;;;5.90;5.30;;;41.40;99.90;;;;;;5114436;28;20020;-83
2022/10/07 10:52:14;;;;;;;7.43;4.40;;;41.70;99.90;;;;;;5113860;28;20053;-83
2022/10/07 10:54:53;;;;;;;6.35;4.78;;;41.40;99.90;;;;;;5114337;28;20136;-83
2022/10/07 10:57:18;;;;;;;7.75;4.70;;;41.50;99.90;;;;;;5114602;28;20020;-83
2022/10/07 10:59:59;;;;;;;5.57;4.18;;;42.00;99.90;;;;;;5113856;28;20080;-83
2022/10/07 11:03:03;;;;;;;6.47;4.75;;;41.60;99.90;;;;;;5095538;28;20055;-83
2022/10/07 11:05:39;;;;;;;7.80;4.40;;;41.50;99.90;;;;;;5113984;28;20024;-83
2022/10/07 11:08:31;;;;;;;5.07;4.63;;;42.20;99.90;;;;;;5114087;28;20491;-83
2022/10/07 11:11:05;;;;;;;6.35;4.22;;;41.00;99.90;;;;;;5114041;28;20031;-83
2022/10/07 11:13:43;;;;;;;7.38;4.45;;;39.80;99.90;;;;;;5113515;28;20073;-83
2022/10/07 11:16:17;;;;;;;5.32;4.20;;;36.40;99.90;;;;;;5113605;28;20028;-83
2022/10/07 11:18:58;;;;;;;8.73;4.80;;;34.20;99.90;;;;;;5113907;28;20027;-83
2022/10/07 11:21:33;;;;;;;7.47;4.93;;;32.50;99.90;;;;;;5113833;28;20020;-83
2022/10/07 11:24:14;;;;;;;6.57;4.20;;;35.20;99.90;;;;;;5113717;28;20042;-83
2022/10/07 11:26:44;;;;;;;5.45;4.50;;;34.50;99.90;;;;;;5113669;28;20107;-82
2022/10/07 11:29:30;;;;;;;4.55;4.10;;;37.40;99.90;;;;;;5113208;28;20042;-83
2022/10/07 11:32:11;;;;;;;6.38;4.13;;;37.90;99.90;;;;;;5113454;28;20151;-83
2022/10/07 11:35:01;;;;;;;7.43;3.90;;;37.30;99.90;;;;;;5112467;27;20443;-83
2022/10/07 11:37:41;;;;;;;5.07;3.20;;;37.00;99.90;;;;;;5072398;28;20416;-83
2022/10/07 11:40:07;;;;;;;4.40;3.30;;;38.60;99.90;;;;;;5073106;28;20496;-83
2022/10/07 11:42:39;;;;;;;4.63;3.15;;;35.10;99.90;;;;;;5072309;28;20093;-84
2022/10/07 11:45:20;;;;;;;5.30;3.17;;;36.50;99.90;;;;;;5072694;28;20024;-83
2022/10/07 11:47:59;;;;;;;6.97;3.35;;;38.90;99.90;;;;;;5072587;28;20039;-84
2022/10/07 11:50:30;;;;;;;5.45;3.40;;;39.20;99.90;;;;;;5072618;28;20033;-83
2022/10/07 11:53:03;;;;;;;3.53;2.80;;;37.60;99.90;;;;;;5072638;28;20020;-83
2022/10/07 11:55:46;;;;;;;7.40;3.22;;;36.80;99.90;;;;;;5072410;28;20048;-83
2022/10/07 11:58:34;;;;;;;5.10;3.33;;;37.00;99.90;;;;;;5072183;28;20031;-83
2022/10/07 12:01:27;;;;;;;4.18;3.08;;;39.50;99.90;;;;;;5072803;28;20060;-83
2022/10/07 12:04:12;;;;;;;4.70;3.30;;;39.50;99.90;;;;;;5072353;28;20044;-84
2022/10/07 12:06:37;;;;;;;3.85;3.20;;;39.20;99.90;;;;;;5072545;28;20111;-84
2022/10/07 12:09:40;;;;;;;5.57;3.20;;;37.90;99.90;;;;;;5072394;28;20472;-84
2022/10/07 12:12:12;;;;;;;7.25;3.28;;;37.70;99.90;;;;;;5072050;28;20021;-83
2022/10/07 12:14:42;;;;;;;6.90;3.60;;;38.00;99.90;;;;;;5072239;28;20025;-83
2022/10/07 12:17:18;;;;;;;5.43;3.47;;;37.50;99.90;;;;;;5072108;28;20024;-84
2022/10/07 12:19:44;;;;;;;5.35;3.45;;;36.90;99.90;;;;;;5072179;28;20028;-83
2022/10/07 12:22:09;;;;;;;4.72;3.80;;;35.70;99.90;;;;;;5072381;28;20032;-83
2022/10/07 12:24:36;;;;;;;3.92;3.10;;;36.20;99.90;;;;;;5072529;28;20031;-83
2022/10/07 12:27:21;;;;;;;5.72;3.50;;;35.90;99.90;;;;;;5071349;28;20488;-84
2022/10/07 12:30:01;;;;;;;6.25;3.13;;;36.10;99.90;;;;;;5072101;28;20024;-83
2022/10/07 12:32:55;;;;;;;4.05;3.15;;;38.00;99.90;;;;;;5071863;28;20480;-83
2022/10/07 12:35:33;;;;;;;5.13;3.50;;;37.20;99.90;;;;;;5110393;28;20056;-84
2022/10/07 12:38:28;;;;;;;3.65;3.22;;;35.20;99.90;;;;;;5112634;28;20089;-83
2022/10/07 12:41:00;;;;;;;4.07;3.45;;;35.00;99.90;;;;;;5103205;28;20040;-84
2022/10/07 12:43:43;;;;;;;5.85;3.50;;;35.80;99.90;;;;;;5094158;28;20062;-84
2022/10/07 12:46:14;;;;;;;4.50;3.55;;;36.20;99.90;;;;;;5112838;28;20019;-83
2022/10/07 12:48:57;;;;;;;4.13;3.72;;;34.20;99.90;;;;;;5112554;28;20020;-83
2022/10/07 12:51:28;;;;;;;4.57;3.40;;;32.80;99.90;;;;;;5112481;28;20031;-83
2022/10/07 12:53:57;;;;;;;4.90;3.80;;;31.40;99.90;;;;;;5112268;28;20028;-84
2022/10/07 12:56:28;;;;;;;5.38;3.80;;;35.30;99.90;;;;;;5111973;28;20027;-84
2022/10/07 13:02:35;;;;;;;5.63;3.92;;;33.80;99.90;;;;;;5112249;28;20043;-83
2022/10/07 13:05:22;;;;;;;5.53;3.85;;;34.40;99.90;;;;;;5112152;28;20101;-83
2022/10/07 13:08:08;;;;;;;4.95;3.55;;;35.10;99.90;;;;;;5112309;28;20035;-84
2022/10/07 13:11:15;;;;;;;3.72;3.38;;;35.40;99.90;;;;;;5112330;28;20028;-83
2022/10/07 13:14:01;;;;;;;4.28;3.58;;;33.50;99.90;;;;;;5112151;28;20074;-83
2022/10/07 13:16:37;;;;;;;4.70;3.80;;;31.10;99.90;;;;;;5112101;28;20049;-84
2022/10/07 13:19:25;;;;;;;4.72;3.60;;;31.80;99.90;;;;;;5112022;28;20020;-83
2022/10/07 13:22:20;;;;;;;5.28;3.60;;;33.20;99.90;;;;;;5112078;28;20027;-83
2022/10/07 13:24:52;;;;;;;5.45;3.80;;;33.80;99.90;;;;;;5090131;28;20085;-84